createdAt,value
2023-03-26T00:01:02.029Z,100787.63
2023-03-26T00:03:29.945Z,100787.81
2023-03-26T00:06:04.009Z,100779.84
2023-03-26T00:08:30.890Z,100783.38
2023-03-26T00:10:58.053Z,100782.53
2023-03-26T00:13:25.299Z,100778.97
2023-03-26T00:15:53.090Z,100787.97
2023-03-26T00:18:22.205Z,100774.75
2023-03-26T00:20:48.616Z,100776.50
2023-03-26T00:23:15.003Z,100778.50
2023-03-26T00:25:43.292Z,100777.72
2023-03-26T00:28:09.996Z,100771.59
2023-03-26T00:30:36.445Z,100769.88
2023-03-26T00:33:03.421Z,100776.19
2023-03-26T00:35:30.276Z,100776.38
2023-03-26T00:37:58.310Z,100771.09
2023-03-26T00:40:25.178Z,100758.47
2023-03-26T00:42:51.766Z,100752.31
2023-03-26T00:45:21.247Z,100755.31
2023-03-26T00:47:47.973Z,100752.91
2023-03-26T00:50:17.614Z,100737.06
2023-03-26T00:52:46.095Z,100740.81
2023-03-26T00:55:13.197Z,100744.53
2023-03-26T00:57:40.497Z,100735.72
2023-03-26T01:00:11.067Z,100735.66
2023-03-26T01:02:38.064Z,100737.19
2023-03-26T01:05:36.393Z,100738.81
2023-03-26T01:08:30.619Z,100741.50
2023-03-26T01:11:03.095Z,100734.19
2023-03-26T01:13:33.532Z,100734.13
2023-03-26T01:16:01.986Z,100732.38
2023-03-26T01:18:33.944Z,100720.78
2023-03-26T01:21:05.436Z,100719.28
2023-03-26T01:23:41.701Z,100708.63
2023-03-26T01:26:18.676Z,100702.31
2023-03-26T01:28:46.793Z,100691.38
2023-03-26T01:31:30.126Z,100696.84
2023-03-26T01:34:30.595Z,100697.63
2023-03-26T01:37:08.865Z,100689.38
2023-03-26T01:39:41.335Z,100692.06
2023-03-26T01:42:14.222Z,100684.56
2023-03-26T01:45:28.295Z,100688.69
2023-03-26T01:47:55.069Z,100677.00
2023-03-26T01:50:21.712Z,100675.19
2023-03-26T01:52:48.163Z,100670.69
2023-03-26T01:55:14.713Z,100667.34
2023-03-26T01:57:50.173Z,100662.06
2023-03-26T02:00:16.637Z,100664.84
2023-03-26T02:02:56.632Z,100654.97
2023-03-26T02:05:29.359Z,100648.94
2023-03-26T02:08:02.903Z,100641.28
2023-03-26T02:10:34.076Z,100640.59
2023-03-26T02:13:01.344Z,100634.47
2023-03-26T02:15:27.902Z,100634.56
2023-03-26T02:17:54.520Z,100631.78
2023-03-26T02:20:21.647Z,100637.25
2023-03-26T02:22:48.485Z,100639.16
2023-03-26T02:25:19.724Z,100630.47
2023-03-26T02:27:49.469Z,100631.31
2023-03-26T02:30:25.969Z,100618.00
2023-03-26T02:32:59.112Z,100616.19
2023-03-26T02:35:29.572Z,100616.75
2023-03-26T02:37:59.237Z,100609.38
2023-03-26T02:40:26.131Z,100604.59
2023-03-26T02:42:52.991Z,100610.53
2023-03-26T02:45:19.697Z,100605.06
2023-03-26T02:48:12.436Z,100602.19
2023-03-26T02:51:02.796Z,100604.66
2023-03-26T02:53:37.514Z,100606.28
2023-03-26T02:56:30.157Z,100597.16
2023-03-26T02:59:09.128Z,100593.53
2023-03-26T03:01:36.924Z,100607.81
2023-03-26T03:04:04.293Z,100603.97
2023-03-26T03:06:35.057Z,100596.69
2023-03-26T03:09:02.729Z,100586.78
2023-03-26T03:11:35.924Z,100586.50
2023-03-26T03:14:02.790Z,100577.59
2023-03-26T03:16:31.269Z,100585.53
2023-03-26T03:19:02.904Z,100585.44
2023-03-26T03:21:36.986Z,100576.50
2023-03-26T03:24:03.586Z,100574.50
2023-03-26T03:26:34.298Z,100571.53
2023-03-26T03:29:12.955Z,100563.38
2023-03-26T03:31:41.152Z,100568.63
2023-03-26T03:34:16.859Z,100560.47
2023-03-26T03:36:49.981Z,100556.81
2023-03-26T03:39:28.372Z,100554.69
2023-03-26T03:41:54.952Z,100560.81
2023-03-26T03:44:21.644Z,100562.56
2023-03-26T03:46:49.277Z,100557.81
2023-03-26T03:49:15.906Z,100559.44
2023-03-26T03:51:42.736Z,100558.47
2023-03-26T03:54:18.979Z,100563.75
2023-03-26T03:56:47.220Z,100562.81
2023-03-26T03:59:32.644Z,100556.44
2023-03-26T04:01:59.806Z,100557.31
2023-03-26T04:04:42.009Z,100554.53
2023-03-26T04:07:11.720Z,100549.16
2023-03-26T04:10:03.023Z,100543.69
2023-03-26T04:12:49.270Z,100538.31
2023-03-26T04:15:17.363Z,100537.38
2023-03-26T04:17:45.421Z,100538.19
2023-03-26T04:20:15.570Z,100523.94
2023-03-26T04:22:44.170Z,100523.84
2023-03-26T04:25:13.265Z,100521.97
2023-03-26T04:27:58.435Z,100513.19
2023-03-26T04:30:45.266Z,100514.03
2023-03-26T04:33:32.541Z,100509.63
2023-03-26T04:36:02.637Z,100505.13
2023-03-26T04:38:43.781Z,100500.72
2023-03-26T04:41:13.053Z,100505.13
2023-03-26T04:44:02.544Z,100498.03
2023-03-26T04:46:43.541Z,100493.53
2023-03-26T04:49:17.047Z,100479.22
2023-03-26T04:51:46.101Z,100480.22
2023-03-26T04:54:32.452Z,100477.53
2023-03-26T04:57:08.848Z,100471.16
2023-03-26T04:59:54.939Z,100467.63
2023-03-26T05:02:21.355Z,100467.53
2023-03-26T05:04:51.727Z,100466.66
2023-03-26T05:07:23.720Z,100462.25
2023-03-26T05:09:53.599Z,100463.13
2023-03-26T05:12:38.339Z,100451.50
2023-03-26T05:15:10.823Z,100454.13
2023-03-26T05:18:03.630Z,100459.47
2023-03-26T05:20:43.364Z,100454.00
2023-03-26T05:23:10.707Z,100447.75
2023-03-26T05:25:41.142Z,100452.16
2023-03-26T05:28:14.993Z,100439.50
2023-03-26T05:30:53.186Z,100436.81
2023-03-26T05:33:22.304Z,100443.91
2023-03-26T05:36:02.960Z,100435.84
2023-03-26T05:38:31.812Z,100434.88
2023-03-26T05:41:04.470Z,100427.81
2023-03-26T05:43:31.776Z,100436.69
2023-03-26T05:46:20.317Z,100424.13
2023-03-26T05:48:47.215Z,100416.94
2023-03-26T05:51:15.698Z,100417.66
2023-03-26T05:53:49.380Z,100413.16
2023-03-26T05:56:51.239Z,100413.16
2023-03-26T05:59:36.641Z,100404.16
2023-03-26T06:02:21.819Z,100407.56
2023-03-26T06:05:09.799Z,100401.38
2023-03-26T06:07:52.421Z,100404.69
2023-03-26T06:10:19.589Z,100397.38
2023-03-26T06:12:46.240Z,100389.94
2023-03-26T06:15:12.942Z,100386.09
2023-03-26T06:17:58.041Z,100387.56
2023-03-26T06:20:46.916Z,100378.44
2023-03-26T06:23:31.047Z,100381.78
2023-03-26T06:26:29.437Z,100377.25
2023-03-26T06:29:16.035Z,100372.75
2023-03-26T06:32:19.774Z,100375.94
2023-03-26T06:34:53.259Z,100372.19
2023-03-26T06:37:19.965Z,100369.28
2023-03-26T06:39:47.757Z,100371.88
2023-03-26T06:42:16.774Z,100367.34
2023-03-26T06:45:01.782Z,100367.00
2023-03-26T06:47:34.052Z,100357.00
2023-03-26T06:50:19.307Z,100366.56
2023-03-26T06:53:04.929Z,100368.53
2023-03-26T06:55:53.558Z,100365.09
2023-03-26T06:58:55.298Z,100360.22
2023-03-26T07:01:31.109Z,100367.31
2023-03-26T07:04:15.984Z,100365.50
2023-03-26T07:07:11.612Z,100367.06
2023-03-26T07:10:10.603Z,100365.25
2023-03-26T07:12:47.763Z,100363.44
2023-03-26T07:15:32.851Z,100367.94
2023-03-26T07:18:18.239Z,100357.19
2023-03-26T07:20:46.430Z,100364.09
2023-03-26T07:23:15.574Z,100361.41
2023-03-26T07:25:51.963Z,100360.31
2023-03-26T07:29:04.779Z,100360.09
2023-03-26T07:32:32.807Z,100364.28
2023-03-26T07:35:28.545Z,100355.22
2023-03-26T07:38:44.260Z,100359.66
2023-03-26T07:41:42.942Z,100351.25
2023-03-26T07:44:47.536Z,100361.13
2023-03-26T07:47:34.827Z,100353.19
2023-03-26T07:50:19.215Z,100352.94
2023-03-26T07:53:04.482Z,100352.00
2023-03-26T07:55:53.673Z,100352.94
2023-03-26T07:59:05.274Z,100352.09
2023-03-26T08:01:52.114Z,100351.53
2023-03-26T08:05:10.376Z,100344.94
2023-03-26T08:08:18.102Z,100348.91
2023-03-26T08:11:22.863Z,100353.06
2023-03-26T08:14:08.687Z,100348.56
2023-03-26T08:16:53.292Z,100348.03
2023-03-26T08:19:45.986Z,100352.03
2023-03-26T08:22:56.684Z,100343.97
2023-03-26T08:25:33.043Z,100346.16
2023-03-26T08:28:14.021Z,100347.00
2023-03-26T08:30:40.422Z,100344.19
2023-03-26T08:33:16.652Z,100344.31
2023-03-26T08:35:44.058Z,100346.03
2023-03-26T08:38:34.460Z,100339.28
2023-03-26T08:41:28.724Z,100345.88
2023-03-26T08:44:47.624Z,100338.97
2023-03-26T08:47:22.921Z,100337.28
2023-03-26T08:50:26.812Z,100342.38
2023-03-26T08:53:24.437Z,100342.03
2023-03-26T08:56:01.488Z,100344.09
2023-03-26T08:59:22.298Z,100350.53
2023-03-26T09:02:22.914Z,100340.88
2023-03-26T09:05:08.177Z,100347.09
2023-03-26T09:07:47.080Z,100346.25
2023-03-26T09:10:28.130Z,100345.75
2023-03-26T09:12:54.540Z,100355.09
2023-03-26T09:15:54.781Z,100355.09
2023-03-26T09:18:47.280Z,100351.44
2023-03-26T09:21:34.007Z,100348.03
2023-03-26T09:24:27.424Z,100345.31
2023-03-26T09:27:33.397Z,100353.69
2023-03-26T09:30:44.455Z,100350.03
2023-03-26T09:33:22.425Z,100349.06
2023-03-26T09:36:07.410Z,100348.84
2023-03-26T09:38:43.826Z,100348.50
2023-03-26T09:41:18.243Z,100348.16
2023-03-26T09:44:10.462Z,100351.81
2023-03-26T09:46:39.871Z,100356.56
2023-03-26T09:49:43.768Z,100353.88
2023-03-26T09:52:41.461Z,100356.56
2023-03-26T09:55:28.475Z,100360.34
2023-03-26T09:58:01.163Z,100363.47
2023-03-26T10:00:49.417Z,100361.75
2023-03-26T10:03:57.916Z,100371.53
2023-03-26T10:06:48.714Z,100366.59
2023-03-26T10:09:29.657Z,100371.75
2023-03-26T10:12:09.652Z,100372.94
2023-03-26T10:14:57.313Z,100374.66
2023-03-26T10:17:55.651Z,100376.91
2023-03-26T10:20:41.393Z,100375.84
2023-03-26T10:23:23.286Z,100376.25
2023-03-26T10:26:03.146Z,100380.00
2023-03-26T10:29:02.250Z,100380.41
2023-03-26T10:31:51.321Z,100387.94
2023-03-26T10:34:46.421Z,100383.91
2023-03-26T10:37:32.470Z,100389.38
2023-03-26T10:40:21.083Z,100389.50
2023-03-26T10:43:19.694Z,100395.06
2023-03-26T10:46:18.180Z,100388.84
2023-03-26T10:49:03.477Z,100401.53
2023-03-26T10:51:53.453Z,100393.88
2023-03-26T10:54:31.198Z,100395.19
2023-03-26T10:57:00.597Z,100403.28
2023-03-26T10:59:27.513Z,100402.44
2023-03-26T11:02:29.079Z,100413.47
2023-03-26T11:05:22.169Z,100403.91
2023-03-26T11:07:57.272Z,100408.97
2023-03-26T11:10:41.211Z,100411.88
2023-03-26T11:13:43.132Z,100413.34
2023-03-26T11:16:29.086Z,100414.44
2023-03-26T11:19:16.468Z,100408.97
2023-03-26T11:22:07.757Z,100422.50
2023-03-26T11:25:05.467Z,100421.00
2023-03-26T11:27:50.589Z,100419.78
2023-03-26T11:30:32.418Z,100425.56
2023-03-26T11:33:03.452Z,100424.06
2023-03-26T11:35:40.858Z,100425.34
2023-03-26T11:38:37.234Z,100430.28
2023-03-26T11:41:11.765Z,100442.16
2023-03-26T11:44:13.094Z,100436.44
2023-03-26T11:46:43.704Z,100448.09
2023-03-26T11:49:14.682Z,100438.84
2023-03-26T11:51:43.099Z,100438.84
2023-03-26T11:54:12.488Z,100445.41
2023-03-26T11:57:05.914Z,100446.59
2023-03-26T11:59:56.685Z,100444.56
2023-03-26T12:02:38.720Z,100446.28
2023-03-26T12:05:20.290Z,100447.88
2023-03-26T12:07:53.546Z,100456.78
2023-03-26T12:10:34.929Z,100457.41
2023-03-26T12:13:19.101Z,100454.19
2023-03-26T12:15:45.785Z,100454.97
2023-03-26T12:18:27.415Z,100460.22
2023-03-26T12:21:10.074Z,100462.78
2023-03-26T12:23:43.467Z,100466.00
2023-03-26T12:26:19.145Z,100460.38
2023-03-26T12:28:50.186Z,100455.97
2023-03-26T12:31:19.067Z,100460.66
2023-03-26T12:34:07.666Z,100470.59
2023-03-26T12:36:35.661Z,100475.03
2023-03-26T12:40:08.661Z,100476.81
2023-03-26T12:44:47.003Z,100469.28
2023-03-26T12:45:22.743Z,100470.91
2023-03-26T12:47:59.882Z,100479.06
2023-03-26T12:50:57.062Z,100478.00
2023-03-26T12:53:46.171Z,100488.94
2023-03-26T12:56:43.141Z,100490.88
2023-03-26T12:59:28.744Z,100490.66
2023-03-26T13:02:07.058Z,100491.38
2023-03-26T13:05:04.358Z,100485.97
2023-03-26T13:07:50.754Z,100499.47
2023-03-26T13:10:31.443Z,100494.66
2023-03-26T13:13:11.468Z,100508.03
2023-03-26T13:16:07.652Z,100498.00
2023-03-26T13:18:53.161Z,100512.34
2023-03-26T13:21:26.601Z,100510.97
2023-03-26T13:24:06.178Z,100502.06
2023-03-26T13:27:00.275Z,100517.03
2023-03-26T13:29:56.290Z,100513.69
2023-03-26T13:32:46.356Z,100527.53
2023-03-26T13:35:27.305Z,100518.19
2023-03-26T13:38:26.306Z,100525.19
2023-03-26T13:41:11.239Z,100525.25
2023-03-26T13:44:04.083Z,100527.13
2023-03-26T13:46:42.591Z,100527.63
2023-03-26T13:49:19.681Z,100532.72
2023-03-26T13:52:00.701Z,100532.22
2023-03-26T13:54:31.175Z,100537.88
2023-03-26T13:57:19.009Z,100533.44
2023-03-26T13:59:55.608Z,100547.91
2023-03-26T14:02:48.578Z,100541.25
2023-03-26T14:05:26.391Z,100540.13
2023-03-26T14:08:00.218Z,100545.00
2023-03-26T14:10:30.998Z,100552.44
2023-03-26T14:13:07.326Z,100552.25
2023-03-26T14:15:45.825Z,100555.34
2023-03-26T14:18:21.376Z,100560.44
2023-03-26T14:21:28.605Z,100567.69
2023-03-26T14:24:23.028Z,100571.38
2023-03-26T14:26:58.246Z,100573.94
2023-03-26T14:29:35.591Z,100581.06
2023-03-26T14:32:24.136Z,100583.44
2023-03-26T14:35:15.535Z,100585.06
2023-03-26T14:38:07.135Z,100595.09
2023-03-26T14:40:33.494Z,100588.69
2023-03-26T14:43:19.617Z,100603.09
2023-03-26T14:45:52.174Z,100612.81
2023-03-26T14:49:02.781Z,100618.19
2023-03-26T14:52:06.021Z,100616.34
2023-03-26T14:54:36.923Z,100622.75
2023-03-26T14:57:28.220Z,100633.16
2023-03-26T15:00:25.268Z,100640.06
2023-03-26T15:03:10.102Z,100642.44
2023-03-26T15:05:45.767Z,100644.91
2023-03-26T15:08:37.557Z,100646.94
2023-03-26T15:11:41.404Z,100649.72
2023-03-26T15:14:31.585Z,100666.09
2023-03-26T15:17:19.452Z,100657.25
2023-03-26T15:20:31.678Z,100666.53
2023-03-26T15:23:17.524Z,100668.69
2023-03-26T15:25:56.033Z,100675.03
2023-03-26T15:28:56.458Z,100672.34
2023-03-26T15:31:47.574Z,100674.41
2023-03-26T15:34:34.934Z,100682.91
2023-03-26T15:37:34.360Z,100685.38
2023-03-26T15:40:09.874Z,100695.06
2023-03-26T15:43:01.459Z,100697.31
2023-03-26T15:45:27.944Z,100694.94
2023-03-26T15:48:34.185Z,100712.69
2023-03-26T15:51:09.794Z,100721.59
2023-03-26T15:53:48.621Z,100722.03
2023-03-26T15:56:43.960Z,100727.78
2023-03-26T15:59:37.418Z,100730.13
2023-03-26T16:02:07.443Z,100743.09
2023-03-26T16:04:51.993Z,100749.34
2023-03-26T16:07:26.214Z,100753.00
2023-03-26T16:10:16.090Z,100763.94
2023-03-26T16:13:06.317Z,100774.75
2023-03-26T16:15:33.259Z,100781.59
2023-03-26T16:18:12.204Z,100784.94
2023-03-26T16:20:54.555Z,100780.94
2023-03-26T16:23:47.722Z,100787.34
2023-03-26T16:26:41.041Z,100800.88
2023-03-26T16:29:29.830Z,100803.78
2023-03-26T16:32:05.213Z,100806.75
2023-03-26T16:34:54.875Z,100804.28
2023-03-26T16:37:35.911Z,100821.44
2023-03-26T16:40:17.854Z,100816.38
2023-03-26T16:43:11.732Z,100826.34
2023-03-26T16:45:50.566Z,100836.50
2023-03-26T16:48:30.400Z,100836.50
2023-03-26T16:51:22.935Z,100845.44
2023-03-26T16:54:12.188Z,100855.41
2023-03-26T16:56:47.530Z,100858.28
2023-03-26T16:59:26.621Z,100869.22
2023-03-26T17:02:06.808Z,100874.97
2023-03-26T17:04:35.503Z,100884.25
2023-03-26T17:07:21.714Z,100892.00
2023-03-26T17:09:51.820Z,100892.31
2023-03-26T17:12:30.210Z,100896.97
2023-03-26T17:15:21.497Z,100897.53
2023-03-26T17:18:03.461Z,100905.28
2023-03-26T17:20:40.556Z,100911.25
2023-03-26T17:23:40.424Z,100914.50
2023-03-26T17:26:42.857Z,100928.78
2023-03-26T17:29:28.898Z,100940.44
2023-03-26T17:32:08.404Z,100939.66
2023-03-26T17:34:55.782Z,100945.13
2023-03-26T17:37:22.152Z,100952.47
2023-03-26T17:39:57.862Z,100965.19
2023-03-26T17:42:38.206Z,100967.03
2023-03-26T17:45:17.451Z,100967.13
2023-03-26T17:47:48.268Z,100977.06
2023-03-26T17:50:22.603Z,100977.50
2023-03-26T17:53:31.564Z,100983.22
2023-03-26T17:56:03.772Z,100985.38
2023-03-26T17:58:35.966Z,100996.28
2023-03-26T18:01:05.471Z,100994.44
2023-03-26T18:03:49.668Z,100999.91
2023-03-26T18:06:57.677Z,101010.97
2023-03-26T18:09:58.477Z,101016.28
2023-03-26T18:12:37.756Z,101019.09
2023-03-26T18:15:30.165Z,101026.84
2023-03-26T18:18:11.732Z,101031.81
2023-03-26T18:20:38.409Z,101040.06
2023-03-26T18:23:10.673Z,101034.56
2023-03-26T18:25:37.771Z,101044.97
2023-03-26T18:28:05.560Z,101041.19
2023-03-26T18:30:32.236Z,101053.47
2023-03-26T18:33:13.576Z,101055.97
2023-03-26T18:35:46.315Z,101063.88
2023-03-26T18:38:37.751Z,101070.88
2023-03-26T18:41:07.824Z,101080.63
2023-03-26T18:43:44.159Z,101092.31
2023-03-26T18:46:13.932Z,101094.03
2023-03-26T18:48:40.719Z,101109.25
2023-03-26T18:51:07.871Z,101113.75
2023-03-26T18:53:48.284Z,101120.91
2023-03-26T18:56:29.846Z,101132.03
2023-03-26T18:59:03.189Z,101139.59
2023-03-26T19:01:32.185Z,101150.88
2023-03-26T19:04:05.982Z,101145.25
2023-03-26T19:06:36.084Z,101155.56
2023-03-26T19:09:23.825Z,101155.00
2023-03-26T19:11:57.335Z,101166.78
2023-03-26T19:14:26.390Z,101167.09
2023-03-26T19:16:58.758Z,101167.84
2023-03-26T19:19:32.421Z,101170.34
2023-03-26T19:21:59.818Z,101170.06
2023-03-26T19:24:27.036Z,101177.06
2023-03-26T19:26:53.956Z,101180.38
2023-03-26T19:29:27.246Z,101179.59
2023-03-26T19:32:15.903Z,101187.94
2023-03-26T19:34:45.003Z,101192.91
2023-03-26T19:37:30.683Z,101204.31
2023-03-26T19:40:14.658Z,101207.03
2023-03-26T19:42:44.752Z,101209.22
2023-03-26T19:45:19.133Z,101219.31
2023-03-26T19:47:50.141Z,101215.84
2023-03-26T19:50:30.180Z,101225.78
2023-03-26T19:53:16.238Z,101234.72
2023-03-26T19:55:52.409Z,101233.16
2023-03-26T19:58:19.714Z,101235.94
2023-03-26T20:00:46.235Z,101237.91
2023-03-26T20:03:13.238Z,101247.81
2023-03-26T20:05:39.853Z,101242.47
2023-03-26T20:08:14.290Z,101248.66
2023-03-26T20:10:42.433Z,101256.56
2023-03-26T20:13:15.890Z,101261.03
2023-03-26T20:15:47.092Z,101261.09
2023-03-26T20:18:13.693Z,101266.31
2023-03-26T20:20:41.306Z,101262.81
2023-03-26T20:23:17.617Z,101265.34
2023-03-26T20:25:52.739Z,101283.09
2023-03-26T20:28:19.268Z,101282.22
2023-03-26T20:30:50.078Z,101285.84
2023-03-26T20:33:25.364Z,101285.09
2023-03-26T20:35:53.722Z,101293.06
2023-03-26T20:38:24.011Z,101297.66
2023-03-26T20:40:56.294Z,101297.66
2023-03-26T20:43:25.071Z,101306.78
2023-03-26T20:45:51.999Z,101310.50
2023-03-26T20:48:18.632Z,101319.53
2023-03-26T20:50:50.650Z,101323.50
2023-03-26T20:53:18.823Z,101337.84
2023-03-26T20:55:46.592Z,101336.31
2023-03-26T20:58:14.980Z,101342.78
2023-03-26T21:00:44.519Z,101345.78
2023-03-26T21:03:17.001Z,101350.38
2023-03-26T21:05:44.979Z,101345.31
2023-03-26T21:08:18.097Z,101354.44
2023-03-26T21:10:47.702Z,101355.59
2023-03-26T21:13:32.294Z,101362.84
2023-03-26T21:16:00.926Z,101358.00
2023-03-26T21:18:28.567Z,101363.63
2023-03-26T21:21:18.199Z,101364.84
2023-03-26T21:24:37.263Z,101373.13
2023-03-26T21:27:12.795Z,101374.38
2023-03-26T21:29:39.529Z,101376.28
2023-03-26T21:32:06.366Z,101381.06
2023-03-26T21:34:33.561Z,101374.97
2023-03-26T21:37:01.583Z,101390.28
2023-03-26T21:39:29.823Z,101393.13
2023-03-26T21:42:05.026Z,101401.25
2023-03-26T21:44:33.422Z,101405.91
2023-03-26T21:47:00.568Z,101411.44
2023-03-26T21:49:27.539Z,101418.69
2023-03-26T21:51:54.248Z,101426.75
2023-03-26T21:54:26.911Z,101428.56
2023-03-26T21:57:12.550Z,101424.84
2023-03-26T22:00:15.191Z,101433.47
2023-03-26T22:03:16.055Z,101443.00
2023-03-26T22:06:10.535Z,101443.59
2023-03-26T22:08:41.363Z,101447.66
2023-03-26T22:11:11.212Z,101452.59
2023-03-26T22:13:39.092Z,101460.28
2023-03-26T22:16:07.645Z,101464.50
2023-03-26T22:18:34.670Z,101460.72
2023-03-26T22:21:01.803Z,101468.41
2023-03-26T22:23:36.205Z,101467.19
2023-03-26T22:26:03.929Z,101458.22
2023-03-26T22:28:30.861Z,101464.31
2023-03-26T22:30:58.197Z,101471.25
2023-03-26T22:33:24.897Z,101484.69
2023-03-26T22:35:52.188Z,101477.66
2023-03-26T22:38:19.090Z,101483.28
2023-03-26T22:40:45.516Z,101490.66
2023-03-26T22:43:12.238Z,101491.06
2023-03-26T22:45:38.701Z,101501.13
2023-03-26T22:48:05.301Z,101503.22
2023-03-26T22:50:32.538Z,101503.44
2023-03-26T22:52:59.295Z,101507.16
2023-03-26T22:55:28.379Z,101513.69
2023-03-26T22:57:55.807Z,101514.81
2023-03-26T23:00:22.403Z,101523.06
2023-03-26T23:02:49.049Z,101523.34
2023-03-26T23:05:17.590Z,101527.09
2023-03-26T23:07:45.945Z,101530.78
2023-03-26T23:10:13.507Z,101538.00
2023-03-26T23:12:40.301Z,101544.94
2023-03-26T23:15:07.742Z,101551.81
2023-03-26T23:17:36.046Z,101551.66
2023-03-26T23:20:06.035Z,101558.59
2023-03-26T23:22:32.598Z,101552.38
2023-03-26T23:24:59.080Z,101559.53
2023-03-26T23:27:25.576Z,101560.53
2023-03-26T23:29:51.975Z,101567.63
2023-03-26T23:32:23.409Z,101568.31
2023-03-26T23:34:51.569Z,101574.28
2023-03-26T23:37:23.094Z,101579.50
2023-03-26T23:39:50.908Z,101582.91
2023-03-26T23:42:17.984Z,101596.19
2023-03-26T23:44:56.512Z,101594.59
2023-03-26T23:47:23.048Z,101599.22
2023-03-26T23:49:49.860Z,101603.84
2023-03-26T23:52:16.616Z,101608.22
2023-03-26T23:54:43.096Z,101616.22
2023-03-26T23:57:10.460Z,101618.97
2023-03-26T23:59:36.969Z,101616.28
